Time;durP1;ratioP1;P1;durP2;ratioP2;P2;SDS_P1;SDS_P2;PMS_P1;PMS_P2;Temp;Humidity;BMP_temperature;BMP_pressure;BME280_temperature;BME280_humidity;BME280_pressure;Samples;Min_cycle;Max_cycle;Signal;HPM_P1;HPM_P2
2022/12/15 00:39:01;;;;;;;28.17;17.80;;;;;;;-7.07;100.00;99850.72;699132;28;1264;-67
2022/12/15 00:39:21;;;;;;;26.87;17.53;;;;;;;-6.96;100.00;99853.81;699781;28;1391;-66
2022/12/15 00:39:41;;;;;;;27.40;18.13;;;;;;;-6.90;100.00;99847.38;698530;28;4505;-66
2022/12/15 00:40:03;;;;;;;28.77;18.30;;;;;;;-6.89;100.00;99851.69;698653;28;1245;-66
2022/12/15 00:40:24;;;;;;;31.17;18.52;;;;;;;-6.82;100.00;99855.41;699563;28;1219;-66
2022/12/15 00:40:44;;;;;;;29.92;17.70;;;;;;;-6.83;100.00;99853.66;699291;28;1399;-66
2022/12/15 00:41:05;;;;;;;28.53;17.53;;;;;;;-6.82;100.00;99854.56;700442;28;1400;-67
2022/12/15 00:41:25;;;;;;;27.50;16.95;;;;;;;-6.82;100.00;99854.56;699370;28;1549;-67
2022/12/15 00:41:45;;;;;;;27.13;17.23;;;;;;;-6.80;100.00;99860.59;702526;28;1360;-67
2022/12/15 00:42:06;;;;;;;28.30;17.83;;;;;;;-6.85;100.00;99858.66;700827;28;1506;-67
2022/12/15 00:42:27;;;;;;;27.95;18.13;;;;;;;-6.81;100.00;99852.09;700915;28;1281;-65
2022/12/15 00:42:47;;;;;;;28.58;17.38;;;;;;;-6.77;100.00;99859.09;700085;28;4447;-67
2022/12/15 00:43:10;;;;;;;30.70;17.87;;;;;;;-6.71;100.00;99858.53;699856;28;1588;-66
2022/12/15 00:43:33;;;;;;;29.52;18.00;;;;;;;-6.72;100.00;99856.75;699772;28;1230;-67
2022/12/15 00:43:53;;;;;;;27.35;17.45;;;;;;;-6.74;100.00;99858.34;700002;28;1282;-65
2022/12/15 00:44:13;;;;;;;27.70;17.70;;;;;;;-6.75;100.00;99860.03;699123;28;1229;-66
2022/12/15 00:44:34;;;;;;;26.67;16.63;;;;;;;-6.76;100.00;99855.72;699532;28;1059;-66
2022/12/15 00:44:55;;;;;;;27.35;17.15;;;;;;;-6.77;100.00;99868.34;699597;28;1266;-66
2022/12/15 00:45:16;;;;;;;27.70;17.60;;;;;;;-6.83;100.00;99865.50;699368;28;1178;-67
2022/12/15 00:46:54;;;;;;;28.58;18.05;;;;;;;-6.98;100.00;99863.03;699517;28;1368;-66
2022/12/15 00:47:15;;;;;;;27.67;18.27;;;;;;;-6.98;100.00;99863.91;699656;28;1321;-66
2022/12/15 00:47:35;;;;;;;28.45;18.00;;;;;;;-6.97;100.00;99869.88;700027;28;1218;-65
2022/12/15 00:47:56;;;;;;;29.37;17.90;;;;;;;-6.95;100.00;99860.66;699735;28;1115;-66
2022/12/15 00:48:16;;;;;;;28.30;17.88;;;;;;;-6.93;100.00;99862.47;699447;28;1262;-66
2022/12/15 00:48:37;;;;;;;27.43;18.10;;;;;;;-6.93;100.00;99865.03;699735;28;1206;-66
2022/12/15 00:48:58;;;;;;;28.80;18.13;;;;;;;-6.92;100.00;99860.81;699307;28;4365;-67
2022/12/15 00:50:53;;;;;;;31.95;18.90;;;;;;;-6.77;100.00;99873.44;698294;28;1989;-66
2022/12/15 00:51:14;;;;;;;27.50;18.20;;;;;;;-6.72;100.00;99864.41;698464;28;1225;-67
2022/12/15 01:20:21;;;;;;;38.00;20.95;;;;;;;-5.96;100.00;99878.31;700340;28;1014;-66
2022/12/15 01:20:41;;;;;;;37.93;20.70;;;;;;;-5.98;100.00;99880.81;699316;28;1241;-66
2022/12/15 01:21:04;;;;;;;36.83;21.00;;;;;;;-6.00;100.00;99887.50;702150;28;1416;-66
2022/12/15 01:21:25;;;;;;;42.00;21.48;;;;;;;-6.00;100.00;99892.56;700681;28;1196;-66
2022/12/15 01:21:45;;;;;;;47.00;22.77;;;;;;;-6.01;100.00;99891.72;698688;28;4356;-67
2022/12/15 01:22:06;;;;;;;44.90;22.80;;;;;;;-6.01;100.00;99890.81;697417;28;1564;-66
2022/12/15 01:22:26;;;;;;;41.07;21.70;;;;;;;-6.00;100.00;99893.44;698251;28;1196;-66
2022/12/15 01:22:48;;;;;;;40.65;21.55;;;;;;;-6.01;100.00;99896.81;696712;28;1238;-64
2022/12/15 01:23:08;;;;;;;39.13;20.88;;;;;;;-6.02;100.00;99894.19;693980;28;1027;-66
2022/12/15 01:23:29;;;;;;;44.33;21.43;;;;;;;-6.06;100.00;99888.06;697709;28;1221;-67
2022/12/15 01:23:50;;;;;;;54.53;22.23;;;;;;;-6.06;100.00;99888.06;696970;28;1258;-67
2022/12/15 01:24:10;;;;;;;54.90;22.60;;;;;;;-6.01;100.00;99898.47;697780;28;1612;-67
2022/12/15 01:24:30;;;;;;;48.90;22.00;;;;;;;-5.83;100.00;99889.16;696615;28;1328;-67
2022/12/15 01:24:51;;;;;;;47.97;21.40;;;;;;;-5.82;100.00;99888.34;698560;28;4560;-67
2022/12/15 01:25:12;;;;;;;42.40;21.23;;;;;;;-5.84;100.00;99886.53;699600;28;1477;-66
2022/12/15 01:25:32;;;;;;;41.67;20.17;;;;;;;-5.85;100.00;99882.25;699438;28;1245;-66
2022/12/15 01:25:53;;;;;;;45.30;20.95;;;;;;;-5.73;100.00;99885.38;699700;28;1324;-66
2022/12/15 01:26:13;;;;;;;42.35;21.35;;;;;;;-5.74;100.00;99885.31;697932;28;2041;-67
2022/12/15 01:26:34;;;;;;;41.13;21.13;;;;;;;-5.73;100.00;99879.41;698819;28;1047;-67
2022/12/15 01:26:54;;;;;;;39.47;20.38;;;;;;;-5.74;100.00;99882.78;699353;28;1315;-67
2022/12/15 01:27:15;;;;;;;39.63;20.83;;;;;;;-5.76;100.00;99892.88;698457;28;1125;-66
2022/12/15 01:27:35;;;;;;;39.00;20.70;;;;;;;-5.78;100.00;99888.50;699743;28;1237;-66
2022/12/15 01:27:56;;;;;;;34.67;20.03;;;;;;;-5.78;100.00;99885.97;699355;28;4401;-66
2022/12/15 01:28:16;;;;;;;35.50;20.20;;;;;;;-5.83;100.00;99884.06;699274;28;1227;-67
2022/12/15 01:28:37;;;;;;;36.50;20.45;;;;;;;-5.84;100.00;99886.53;697995;28;1305;-67
2022/12/15 01:28:57;;;;;;;38.80;20.27;;;;;;;-5.79;100.00;99891.84;697386;28;1226;-66
2022/12/15 01:29:17;;;;;;;41.60;20.10;;;;;;;-5.78;100.00;99888.50;697077;28;1342;-66
2022/12/15 01:29:38;;;;;;;44.15;20.15;;;;;;;-5.83;100.00;99891.72;697206;28;1320;-66
2022/12/15 01:29:58;;;;;;;53.67;20.03;;;;;;;-5.87;100.00;99883.81;699949;28;1283;-67
2022/12/15 01:30:22;;;;;;;55.80;19.13;;;;;;;-5.92;100.00;99891.25;697907;28;1070;-67
2022/12/15 01:30:42;;;;;;;51.90;19.75;;;;;;;-5.90;100.00;99881.13;703077;28;4334;-66
2022/12/15 01:31:10;;;;;;;49.90;20.07;;;;;;;-5.88;100.00;99884.66;701000;28;1281;-66
2022/12/15 01:31:30;;;;;;;50.00;20.20;;;;;;;-5.86;100.00;99890.66;700851;28;1264;-67
2022/12/15 01:31:50;;;;;;;57.40;20.10;;;;;;;-5.84;100.00;99889.09;697920;28;1352;-67
2022/12/15 01:32:12;;;;;;;56.65;20.55;;;;;;;-5.91;100.00;99882.81;699173;28;1153;-67
2022/12/15 01:32:33;;;;;;;51.08;20.73;;;;;;;-5.94;100.00;99886.88;697976;28;1270;-67
2022/12/15 01:32:53;;;;;;;49.72;20.20;;;;;;;-5.88;100.00;99880.41;701934;28;1340;-66
2022/12/15 01:33:15;;;;;;;50.30;20.52;;;;;;;-5.89;100.00;99882.91;702897;28;1073;-66
2022/12/15 01:33:35;;;;;;;51.75;20.67;;;;;;;-5.90;100.00;99889.63;701833;28;1343;-66
2022/12/15 01:33:56;;;;;;;47.28;20.83;;;;;;;-5.90;100.00;99881.13;701778;27;4407;-66
2022/12/15 01:34:18;;;;;;;41.13;20.67;;;;;;;-5.90;100.00;99883.69;701786;28;1145;-66
2022/12/15 01:34:39;;;;;;;37.78;20.15;;;;;;;-5.91;100.00;99890.47;701841;28;1106;-66
2022/12/15 01:34:59;;;;;;;35.90;20.43;;;;;;;-5.92;100.00;99888.72;699086;28;1241;-67
2022/12/15 01:35:20;;;;;;;38.05;20.98;;;;;;;-5.89;100.00;99886.31;699564;28;1054;-65
2022/12/15 01:35:40;;;;;;;43.15;21.65;;;;;;;-5.87;100.00;99894.00;699190;28;1721;-67
2022/12/15 01:36:01;;;;;;;55.73;21.10;;;;;;;-5.90;100.00;99894.72;699562;28;1325;-67
2022/12/15 01:36:21;;;;;;;61.22;21.05;;;;;;;-5.92;100.00;99893.78;698697;28;975;-65
2022/12/15 01:36:42;;;;;;;65.67;22.30;;;;;;;-5.91;100.00;99897.19;698828;28;4369;-67
2022/12/15 01:37:02;;;;;;;52.13;21.17;;;;;;;-5.92;100.00;99896.34;700388;28;1305;-67
2022/12/15 01:37:22;;;;;;;46.97;21.50;;;;;;;-5.92;100.00;99893.78;698981;28;1089;-66
2022/12/15 01:37:43;;;;;;;44.90;20.63;;;;;;;-5.93;100.00;99899.69;699243;28;1294;-66
2022/12/15 01:38:04;;;;;;;45.30;20.73;;;;;;;-5.85;100.00;99895.84;700058;28;1396;-66
2022/12/15 01:38:26;;;;;;;54.33;21.57;;;;;;;-5.83;100.00;99895.91;700220;28;1164;-66
2022/12/15 01:38:46;;;;;;;49.97;22.17;;;;;;;-5.84;100.00;99895.03;699433;28;5131;-67
2022/12/15 01:39:07;;;;;;;38.83;20.80;;;;;;;-5.85;100.00;99898.38;700043;28;1265;-65
2022/12/15 01:40:43;;;;;;;37.35;20.10;;;;;;;-5.87;100.00;99892.34;696673;28;1329;-66
2022/12/15 01:41:00;;;;;;;50.97;21.40;;;;;;;-5.78;100.00;99902.09;696695;28;1777;-66
2022/12/15 01:41:21;;;;;;;51.05;20.58;;;;;;;-5.79;100.00;99892.72;698337;28;1126;-66
2022/12/15 01:41:41;;;;;;;48.03;21.40;;;;;;;-5.81;100.00;99894.31;699904;28;1571;-67
2022/12/15 01:42:02;;;;;;;40.95;20.75;;;;;;;-5.83;100.00;99896.81;700136;28;1402;-70
2022/12/15 01:42:22;;;;;;;40.67;20.90;;;;;;;-5.78;100.00;99898.69;699933;28;1267;-66
2022/12/15 01:42:42;;;;;;;42.33;21.05;;;;;;;-5.76;100.00;99904.72;700511;28;4292;-66
2022/12/15 01:43:08;;;;;;;42.10;21.30;;;;;;;-5.72;100.00;99896.44;699976;28;1301;-67
2022/12/15 01:43:34;;;;;;;44.05;20.45;;;;;;;-5.74;100.00;99905.69;700624;28;1189;-66
2022/12/15 01:44:14;;;;;;;40.92;20.83;;;;;;;-5.76;100.00;99909.81;700161;28;1253;-66
2022/12/15 01:44:35;;;;;;;46.40;21.63;;;;;;;-5.79;100.00;99908.00;700376;28;1226;-67
2022/12/15 01:45:37;;;;;;;46.83;21.53;;;;;;;-5.81;100.00;99910.47;699933;28;1078;-67
2022/12/15 01:46:08;;;;;;;38.47;20.45;;;;;;;-5.76;100.00;99918.34;699519;28;4279;-66
2022/12/15 01:46:28;;;;;;;43.08;20.95;;;;;;;-5.70;100.00;99918.63;699910;28;1184;-66
2022/12/15 01:46:54;;;;;;;46.13;20.07;;;;;;;-5.70;100.00;99916.09;699740;28;1479;-66
2022/12/15 01:47:14;;;;;;;38.55;19.60;;;;;;;-5.72;100.00;99917.69;699678;28;1102;-67
2022/12/15 01:47:35;;;;;;;37.30;19.83;;;;;;;-5.72;100.00;99914.25;699500;28;1218;-66
2022/12/15 01:48:08;;;;;;;42.13;21.00;;;;;;;-5.74;100.00;99915.88;700133;28;1253;-67
2022/12/15 01:48:34;;;;;;;36.94;20.18;;;;;;;-5.76;100.00;99920.88;700585;28;1308;-67
2022/12/15 01:49:12;;;;;;;36.88;20.15;;;;;;;-5.78;100.00;99926.69;699872;28;4433;-66
2022/12/15 01:49:33;;;;;;;41.40;21.88;;;;;;;-5.74;100.00;99920.97;700380;28;1261;-67
2022/12/15 01:49:53;;;;;;;38.73;21.13;;;;;;;-5.69;100.00;99914.41;699627;28;1142;-67
2022/12/15 01:50:15;;;;;;;36.40;20.55;;;;;;;-5.71;100.00;99921.09;697228;28;1651;-66
2022/12/15 01:50:41;;;;;;;37.05;20.63;;;;;;;-5.67;100.00;99923.00;696781;28;1902;-69
2022/12/15 01:51:12;;;;;;;40.45;21.85;;;;;;;-5.63;100.00;99922.34;698504;28;1297;-67
2022/12/15 01:51:36;;;;;;;39.67;20.83;;;;;;;-5.64;100.00;99920.59;696645;28;1652;-66
2022/12/15 01:52:03;;;;;;;44.38;21.42;;;;;;;-5.48;100.00;99924.75;696391;28;4281;-66
2022/12/15 01:52:23;;;;;;;40.83;21.23;;;;;;;-5.42;100.00;99919.09;698909;28;1046;-67
2022/12/15 01:52:46;;;;;;;39.45;21.02;;;;;;;-5.45;100.00;99924.00;699949;28;1375;-67
2022/12/15 01:53:07;;;;;;;44.05;21.92;;;;;;;-5.52;100.00;99923.72;699914;28;1261;-67
2022/12/15 01:53:32;;;;;;;45.72;21.73;;;;;;;-5.56;100.00;99921.84;700346;28;1185;-66
2022/12/15 01:54:05;;;;;;;43.92;20.70;;;;;;;-5.59;100.00;99920.81;701950;27;1078;-66
2022/12/15 01:54:30;;;;;;;46.28;21.40;;;;;;;-5.60;100.00;99925.03;701650;28;1042;-67
2022/12/15 01:54:54;;;;;;;45.10;21.67;;;;;;;-5.51;100.00;99919.50;702161;28;4426;-66
2022/12/15 01:55:17;;;;;;;43.85;20.95;;;;;;;-5.52;100.00;99925.41;702287;28;1047;-66
2022/12/15 01:55:41;;;;;;;41.78;20.90;;;;;;;-5.55;100.00;99922.69;701704;27;1099;-66
2022/12/15 01:56:04;;;;;;;35.78;20.02;;;;;;;-5.58;100.00;99918.34;699330;28;1237;-67
2022/12/15 01:56:26;;;;;;;39.38;20.27;;;;;;;-5.62;100.00;99919.00;699853;28;1038;-67
2022/12/15 01:56:51;;;;;;;44.42;20.38;;;;;;;-5.58;100.00;99920.91;699448;28;1455;-67
2022/12/15 01:57:18;;;;;;;45.65;21.02;;;;;;;-5.54;100.00;99921.91;696002;28;1105;-67
2022/12/15 01:57:39;;;;;;;42.10;21.55;;;;;;;-5.56;100.00;99919.28;695276;28;4361;-66
2022/12/15 01:58:05;;;;;;;40.38;21.17;;;;;;;-5.54;100.00;99919.34;699000;28;1254;-67
2022/12/15 01:58:26;;;;;;;48.08;20.25;;;;;;;-5.59;100.00;99918.25;699446;28;1113;-65
2022/12/15 01:58:49;;;;;;;46.35;20.42;;;;;;;-5.62;100.00;99916.47;698523;28;1091;-66
2022/12/15 01:59:13;;;;;;;41.22;20.83;;;;;;;-5.64;100.00;99923.13;701579;28;994;-67
2022/12/15 01:59:39;;;;;;;40.10;20.80;;;;;;;-5.63;100.00;99922.34;702220;28;1390;-67
2022/12/15 02:00:01;;;;;;;39.90;20.70;;;;;;;-5.56;100.00;99926.06;697318;28;1430;-67
2022/12/15 02:00:21;;;;;;;41.92;21.02;;;;;;;-5.52;100.00;99923.72;695883;28;1558;-66
2022/12/15 02:00:42;;;;;;;43.35;20.90;;;;;;;-5.54;100.00;99929.53;695634;28;4533;-66
2022/12/15 02:01:02;;;;;;;39.67;20.80;;;;;;;-5.58;100.00;99923.44;695283;28;1305;-67
2022/12/15 02:01:23;;;;;;;40.20;20.73;;;;;;;-5.59;100.00;99921.69;692563;28;1451;-67
2022/12/15 02:01:43;;;;;;;39.67;20.43;;;;;;;-5.58;100.00;99928.53;693204;28;1409;-66
2022/12/15 02:02:04;;;;;;;46.20;21.15;;;;;;;-5.52;100.00;99928.81;695414;28;1102;-67
2022/12/15 02:02:27;;;;;;;39.90;20.83;;;;;;;-5.40;100.00;99927.66;695480;28;1038;-67
2022/12/15 02:02:48;;;;;;;39.58;20.88;;;;;;;-5.32;100.00;99931.44;694644;28;1339;-66
2022/12/15 02:03:10;;;;;;;38.25;21.08;;;;;;;-5.26;100.00;99933.41;696183;28;1027;-66
2022/12/15 02:03:31;;;;;;;38.53;20.42;;;;;;;-5.30;100.00;99929.84;696991;28;1094;-67
2022/12/15 02:03:51;;;;;;;36.88;20.30;;;;;;;-5.34;100.00;99927.97;694356;28;4364;-67
2022/12/15 02:04:12;;;;;;;38.13;20.77;;;;;;;-5.38;100.00;99933.72;693833;28;999;-66
2022/12/15 02:04:33;;;;;;;36.83;21.35;;;;;;;-5.43;100.00;99937.72;696146;28;1103;-66
2022/12/15 02:04:57;;;;;;;36.88;21.17;;;;;;;-5.48;100.00;99935.81;697179;28;1517;-67
2022/12/15 02:05:19;;;;;;;36.95;20.10;;;;;;;-5.47;100.00;99937.56;698095;28;982;-66
2022/12/15 02:05:41;;;;;;;41.97;21.15;;;;;;;-5.40;100.00;99942.94;697069;28;1444;-67
2022/12/15 02:06:02;;;;;;;42.53;21.13;;;;;;;-5.40;100.00;99933.66;697334;28;1329;-67
2022/12/15 02:06:24;;;;;;;42.08;20.90;;;;;;;-5.43;100.00;99941.13;696987;28;1094;-67
2022/12/15 02:06:45;;;;;;;41.67;21.40;;;;;;;-5.40;100.00;99935.31;698550;28;4386;-66
2022/12/15 02:07:05;;;;;;;42.30;21.93;;;;;;;-5.42;100.00;99934.38;701988;28;1253;-67
2022/12/15 02:07:26;;;;;;;39.60;21.30;;;;;;;-5.39;100.00;99934.50;702251;28;1124;-67
2022/12/15 02:07:46;;;;;;;40.83;20.88;;;;;;;-5.34;100.00;99933.06;701779;27;1216;-67
2022/12/15 02:08:08;;;;;;;38.80;20.23;;;;;;;-5.37;100.00;99933.78;702802;28;1475;-67
2022/12/15 02:08:29;;;;;;;38.33;20.80;;;;;;;-5.41;100.00;99933.53;702073;28;1136;-66
2022/12/15 02:08:53;;;;;;;38.78;21.33;;;;;;;-5.38;100.00;99938.81;702337;28;1087;-67
2022/12/15 02:09:15;;;;;;;42.15;21.00;;;;;;;-5.31;100.00;99934.06;699073;28;1168;-66
2022/12/15 02:09:35;;;;;;;38.92;21.40;;;;;;;-5.33;100.00;99934.78;700129;28;1107;-66
2022/12/15 02:09:59;;;;;;;41.42;21.65;;;;;;;-5.34;100.00;99928.81;699558;28;4288;-67
2022/12/15 02:10:20;;;;;;;40.70;21.23;;;;;;;-5.32;100.00;99932.34;699550;28;1293;-67
2022/12/15 02:11:01;;;;;;;43.40;21.00;;;;;;;-5.35;100.00;99928.75;701642;28;1902;-68
2022/12/15 02:11:25;;;;;;;40.63;20.88;;;;;;;-5.36;100.00;99932.09;701888;28;1223;-66
2022/12/15 02:11:57;;;;;;;41.88;21.42;;;;;;;-5.38;100.00;99932.03;701707;28;1376;-69
2022/12/15 02:12:32;;;;;;;40.83;20.98;;;;;;;-5.43;100.00;99927.53;702354;28;1074;-67
2022/12/15 02:12:55;;;;;;;41.00;21.02;;;;;;;-5.42;100.00;99929.28;696580;28;4762;-66
2022/12/15 02:13:31;;;;;;;38.88;20.85;;;;;;;-5.45;100.00;99926.56;697007;28;1462;-65
2022/12/15 02:13:59;;;;;;;42.20;21.55;;;;;;;-5.46;100.00;99930.78;697312;28;1162;-67
2022/12/15 02:14:34;;;;;;;42.33;21.67;;;;;;;-5.48;100.00;99930.72;697147;28;1122;-67
2022/12/15 02:15:20;;;;;;;43.28;21.40;;;;;;;-5.47;100.00;99919.75;698170;28;1084;-67
2022/12/15 02:15:54;;;;;;;45.17;21.58;;;;;;;-5.49;100.00;99923.00;697923;28;4632;-66
2022/12/15 02:16:17;;;;;;;37.70;21.20;;;;;;;-5.49;100.00;99916.22;698788;28;1146;-67
2022/12/15 02:17:04;;;;;;;41.75;21.70;;;;;;;-5.48;100.00;99925.63;700030;28;1185;-67
2022/12/15 02:17:58;;;;;;;41.20;22.13;;;;;;;-5.38;100.00;99920.97;687169;28;1216;-68
2022/12/15 02:18:34;;;;;;;37.38;21.10;;;;;;;-5.34;100.00;99923.72;699364;28;1870;-67
2022/12/15 02:19:23;;;;;;;40.83;20.52;;;;;;;-5.35;100.00;99926.22;699450;28;4479;-67
2022/12/15 02:19:52;;;;;;;39.75;21.17;;;;;;;-5.34;100.00;99925.41;702239;28;1300;-66
2022/12/15 02:20:47;;;;;;;43.42;21.42;;;;;;;-5.33;100.00;99924.59;698997;28;1122;-66
2022/12/15 02:21:21;;;;;;;38.70;20.98;;;;;;;-5.39;100.00;99925.19;699181;28;1410;-66
2022/12/15 02:21:55;;;;;;;37.08;20.55;;;;;;;-5.41;100.00;99928.44;694351;28;4513;-67
2022/12/15 02:22:31;;;;;;;38.28;20.40;;;;;;;-5.43;100.00;99930.06;697201;28;1135;-67
2022/12/15 02:23:16;;;;;;;40.45;20.58;;;;;;;-5.50;100.00;99932.34;696580;28;1213;-66
2022/12/15 02:23:56;;;;;;;42.05;21.42;;;;;;;-5.50;100.00;99926.34;698997;28;1205;-66
2022/12/15 02:24:49;;;;;;;40.38;22.00;;;;;;;-5.43;100.00;99925.84;699552;28;1153;-68
2022/12/15 02:25:40;;;;;;;38.75;20.63;;;;;;;-5.39;100.00;99921.78;688183;28;4939;-67
2022/12/15 02:26:03;;;;;;;40.72;21.83;;;;;;;-5.34;100.00;99930.50;689200;28;1290;-67
2022/12/15 02:27:09;;;;;;;43.03;21.95;;;;;;;-5.30;100.00;99925.63;688602;28;1265;-66
2022/12/15 02:28:05;;;;;;;36.67;20.33;;;;;;;-5.33;100.00;99932.22;697117;28;1126;-67
2022/12/15 02:29:03;;;;;;;37.65;20.63;;;;;;;-5.30;100.00;99929.84;690211;28;4772;-66
2022/12/15 02:29:29;;;;;;;42.00;21.55;;;;;;;-5.14;100.00;99936.53;691236;28;1177;-66
2022/12/15 02:30:11;;;;;;;42.85;21.20;;;;;;;-5.13;100.00;99930.63;696547;28;1207;-67
2022/12/15 02:31:48;;;;;;;38.15;20.00;;;;;;;-5.08;100.00;99935.94;696530;28;1913;-67
2022/12/15 02:31:50;;;;;;;41.75;20.20;;;;;;;-4.99;100.00;99928.72;697283;28;5593;-67
2022/12/15 02:32:15;;;;;;;39.38;20.40;;;;;;;-4.96;100.00;99927.19;696324;28;1086;-67
2022/12/15 02:32:42;;;;;;;36.55;20.52;;;;;;;-4.88;100.00;99929.22;699887;28;1058;-67
2022/12/15 02:33:22;;;;;;;40.38;20.67;;;;;;;-4.93;100.00;99926.44;700488;28;1206;-67
2022/12/15 02:33:53;;;;;;;42.92;20.25;;;;;;;-5.06;100.00;99925.00;699311;28;1423;-66
2022/12/15 02:34:25;;;;;;;43.10;21.35;;;;;;;-5.07;100.00;99928.34;698369;28;1649;-66
2022/12/15 02:35:00;;;;;;;39.55;20.58;;;;;;;-5.10;100.00;99929.91;698791;28;1416;-67
2022/12/15 02:35:29;;;;;;;39.38;21.40;;;;;;;-5.07;100.00;99933.44;696063;28;1173;-66
2022/12/15 02:35:56;;;;;;;41.60;21.15;;;;;;;-5.10;100.00;99933.31;697144;28;1130;-67
2022/12/15 02:36:26;;;;;;;36.92;21.35;;;;;;;-5.08;100.00;99933.38;696731;28;1050;-66
2022/12/15 02:36:51;;;;;;;39.45;20.90;;;;;;;-5.11;100.00;99933.25;696890;28;4466;-67
2022/12/15 02:37:21;;;;;;;41.45;21.58;;;;;;;-5.18;100.00;99925.34;699571;28;1090;-66
2022/12/15 02:37:43;;;;;;;40.28;21.30;;;;;;;-5.11;100.00;99934.13;703357;28;1364;-65
2022/12/15 02:38:04;;;;;;;40.63;20.95;;;;;;;-5.11;100.00;99926.47;701744;28;1241;-66
2022/12/15 02:38:43;;;;;;;39.63;21.00;;;;;;;-5.18;100.00;99929.53;701337;28;1196;-66
2022/12/15 02:39:05;;;;;;;39.72;21.45;;;;;;;-5.24;100.00;99925.03;701743;28;5428;-67
2022/12/15 02:39:25;;;;;;;40.72;20.98;;;;;;;-5.26;100.00;99925.75;699000;28;1248;-66
2022/12/15 02:39:45;;;;;;;40.00;20.45;;;;;;;-5.23;100.00;99923.34;695594;28;4471;-66
2022/12/15 02:40:08;;;;;;;39.50;20.87;;;;;;;-5.25;100.00;99924.97;697367;28;1174;-66
2022/12/15 02:40:29;;;;;;;40.47;20.98;;;;;;;-5.21;100.00;99921.75;696155;28;1174;-66
2022/12/15 02:40:56;;;;;;;43.38;21.50;;;;;;;-5.20;100.00;99924.38;696537;28;1354;-67
2022/12/15 02:41:35;;;;;;;39.75;20.95;;;;;;;-5.24;100.00;99927.59;698414;28;1071;-67
2022/12/15 02:41:56;;;;;;;39.30;20.42;;;;;;;-5.24;100.00;99925.03;699051;28;1107;-67
2022/12/15 02:42:16;;;;;;;39.47;20.43;;;;;;;-5.23;100.00;99925.88;698956;28;1161;-67
2022/12/15 02:42:44;;;;;;;38.90;20.92;;;;;;;-5.23;100.00;99929.34;699338;28;1158;-66
2022/12/15 02:43:06;;;;;;;37.92;21.27;;;;;;;-5.20;100.00;99931.16;699915;28;5321;-67
2022/12/15 02:43:29;;;;;;;40.63;21.63;;;;;;;-5.22;100.00;99931.09;699280;28;1328;-66
2022/12/15 02:43:49;;;;;;;41.90;21.65;;;;;;;-5.23;100.00;99931.88;700473;28;1122;-67
2022/12/15 02:44:34;;;;;;;42.60;21.43;;;;;;;-5.09;100.00;99934.22;699414;28;1102;-66
2022/12/15 02:45:08;;;;;;;40.53;20.38;;;;;;;-4.99;100.00;99937.22;698984;28;1313;-67
2022/12/15 02:46:06;;;;;;;40.97;21.00;;;;;;;-5.00;100.00;99937.16;700629;28;1134;-66
2022/12/15 02:46:38;;;;;;;40.58;21.10;;;;;;;-5.03;100.00;99939.56;691823;28;4963;-66
2022/12/15 02:47:26;;;;;;;42.35;20.60;;;;;;;-5.07;100.00;99938.56;696771;28;1221;-66
2022/12/15 02:48:09;;;;;;;40.45;21.08;;;;;;;-5.08;100.00;99941.03;695202;28;1285;-67
2022/12/15 02:48:55;;;;;;;41.85;21.98;;;;;;;-5.21;100.00;99940.47;694258;28;1118;-66
2022/12/15 02:49:26;;;;;;;39.75;20.85;;;;;;;-5.16;100.00;99944.09;697358;28;4950;-66
2022/12/15 02:50:12;;;;;;;42.03;21.90;;;;;;;-5.19;100.00;99937.97;700547;28;1213;-66
2022/12/15 02:50:35;;;;;;;37.40;21.52;;;;;;;-5.19;100.00;99938.88;699421;28;1910;-66
2022/12/15 02:51:10;;;;;;;39.78;21.05;;;;;;;-5.22;100.00;99942.94;699174;28;1153;-66
2022/12/15 02:51:43;;;;;;;42.45;21.55;;;;;;;-5.18;100.00;99945.72;700118;28;1135;-66
2022/12/15 02:52:30;;;;;;;41.83;21.90;;;;;;;-5.06;100.00;99949.63;699110;28;6073;-66
2022/12/15 02:53:05;;;;;;;43.10;22.30;;;;;;;-5.06;100.00;99949.63;699328;28;1107;-66
2022/12/15 02:53:59;;;;;;;43.67;22.73;;;;;;;-5.10;100.00;99947.75;702827;28;1075;-67
2022/12/15 02:54:46;;;;;;;39.10;21.10;;;;;;;-5.17;100.00;99947.44;702287;28;1071;-66
2022/12/15 02:55:34;;;;;;;41.95;21.88;;;;;;;-5.26;100.00;99944.50;696612;28;4820;-66
2022/12/15 02:56:46;;;;;;;37.20;21.50;;;;;;;-5.17;100.00;99947.44;696702;28;1162;-67
2022/12/15 02:57:23;;;;;;;40.83;22.70;;;;;;;-5.21;100.00;99947.25;691971;28;1669;-66
2022/12/15 02:58:02;;;;;;;42.65;22.27;;;;;;;-5.20;100.00;99947.31;697687;28;4301;-66
2022/12/15 02:58:37;;;;;;;38.35;21.63;;;;;;;-5.20;100.00;99954.94;696215;28;1361;-66
2022/12/15 02:59:09;;;;;;;39.40;21.35;;;;;;;-5.05;100.00;99946.25;699703;28;1138;-66
2022/12/15 02:59:41;;;;;;;40.20;21.77;;;;;;;-5.11;100.00;99948.53;702459;28;1141;-67
2022/12/15 03:00:10;;;;;;;42.28;21.90;;;;;;;-5.14;100.00;99952.72;701217;28;1225;-66
2022/12/15 03:00:37;;;;;;;45.13;22.10;;;;;;;-5.09;100.00;99950.38;703964;27;1142;-67
2022/12/15 03:01:07;;;;;;;43.72;21.77;;;;;;;-5.10;100.00;99955.41;697421;28;4301;-66
2022/12/15 03:01:37;;;;;;;40.22;21.92;;;;;;;-5.04;100.00;99953.13;701089;28;1231;-67
2022/12/15 03:02:02;;;;;;;42.38;22.10;;;;;;;-5.05;100.00;99959.00;700986;28;1079;-66
2022/12/15 03:02:25;;;;;;;44.92;22.40;;;;;;;-5.06;100.00;99952.19;700931;28;1364;-66
2022/12/15 03:02:54;;;;;;;43.60;22.42;;;;;;;-5.13;100.00;99954.44;701297;28;1428;-67
2022/12/15 03:03:19;;;;;;;42.75;22.25;;;;;;;-5.20;100.00;99952.41;697646;28;1091;-66
2022/12/15 03:03:41;;;;;;;42.88;22.35;;;;;;;-5.23;100.00;99956.47;696439;28;4312;-67
2022/12/15 03:04:05;;;;;;;42.63;22.90;;;;;;;-5.25;100.00;99948.75;696688;28;1296;-67
2022/12/15 03:04:26;;;;;;;40.67;22.30;;;;;;;-5.25;100.00;99953.00;695905;28;1123;-66
2022/12/15 03:04:47;;;;;;;43.25;22.15;;;;;;;-5.25;100.00;99947.91;696882;28;1580;-66
2022/12/15 03:05:08;;;;;;;44.65;22.83;;;;;;;-5.21;100.00;99943.00;697856;28;1428;-66
2022/12/15 03:05:30;;;;;;;43.08;22.77;;;;;;;-5.21;100.00;99944.69;700414;28;1063;-66
2022/12/15 03:05:56;;;;;;;40.58;21.85;;;;;;;-5.22;100.00;99951.47;699208;28;1177;-66
2022/12/15 03:06:17;;;;;;;41.53;21.50;;;;;;;-5.02;100.00;99948.97;699988;28;1113;-66
2022/12/15 03:06:38;;;;;;;38.42;21.23;;;;;;;-5.00;100.00;99955.00;698743;28;1115;-66
2022/12/15 03:07:08;;;;;;;40.13;22.10;;;;;;;-5.08;100.00;99951.22;699018;28;4373;-66
2022/12/15 03:07:28;;;;;;;43.15;22.23;;;;;;;-5.16;100.00;99948.34;700135;28;1107;-67
2022/12/15 03:07:51;;;;;;;42.00;21.97;;;;;;;-5.08;100.00;99948.69;699616;28;1127;-67
2022/12/15 03:08:12;;;;;;;42.33;22.30;;;;;;;-5.07;100.00;99947.88;699555;28;1071;-66
2022/12/15 03:08:32;;;;;;;43.25;22.15;;;;;;;-5.06;100.00;99947.94;699933;28;1629;-66
2022/12/15 03:08:52;;;;;;;39.37;21.70;;;;;;;-5.10;100.00;99953.72;695572;28;3149;-66
2022/12/15 03:09:13;;;;;;;42.90;21.73;;;;;;;-5.06;100.00;99947.09;696573;28;1183;-66
2022/12/15 03:09:34;;;;;;;42.80;21.55;;;;;;;-5.09;100.00;99952.91;696962;28;1115;-65
2022/12/15 03:09:58;;;;;;;42.27;22.57;;;;;;;-5.09;100.00;99954.59;696886;28;4324;-67
2022/12/15 03:10:22;;;;;;;40.17;22.00;;;;;;;-5.11;100.00;99958.75;696061;28;1285;-66
2022/12/15 03:10:42;;;;;;;40.67;21.77;;;;;;;-5.17;100.00;99957.63;697029;28;1914;-66
2022/12/15 03:11:03;;;;;;;37.47;22.00;;;;;;;-5.19;100.00;99961.81;698194;28;1304;-65
2022/12/15 03:11:23;;;;;;;37.75;21.35;;;;;;;-5.22;100.00;99960.78;699908;28;1557;-65
2022/12/15 03:11:44;;;;;;;38.93;22.20;;;;;;;-5.23;100.00;99959.91;702726;28;1497;-66
2022/12/15 03:12:04;;;;;;;41.45;22.55;;;;;;;-5.25;100.00;99958.09;701176;28;1308;-66
2022/12/15 03:12:25;;;;;;;42.03;21.90;;;;;;;-5.26;100.00;99964.88;701047;28;1187;-66
2022/12/15 03:12:45;;;;;;;39.67;22.33;;;;;;;-5.28;100.00;99961.34;703475;28;4304;-66
2022/12/15 03:13:05;;;;;;;42.93;21.80;;;;;;;-5.27;100.00;99972.44;703623;28;1074;-67
2022/12/15 03:13:26;;;;;;;40.30;21.17;;;;;;;-5.30;100.00;99966.38;700476;28;1438;-66
2022/12/15 03:13:46;;;;;;;40.97;21.53;;;;;;;-5.31;100.00;99968.88;698088;28;1384;-66
2022/12/15 03:14:07;;;;;;;42.80;22.70;;;;;;;-5.30;100.00;99966.38;698754;28;1360;-64